createdAt,value
2022-11-24T00:01:16.498Z,92.10
2022-11-24T00:03:45.565Z,93.02
2022-11-24T00:06:18.795Z,92.92
2022-11-24T00:08:52.084Z,92.87
2022-11-24T00:11:21.581Z,92.56
2022-11-24T00:13:48.301Z,92.25
2022-11-24T00:16:18.706Z,92.17
2022-11-24T00:18:47.943Z,92.52
2022-11-24T00:21:16.889Z,92.05
2022-11-24T00:23:44.810Z,92.42
2022-11-24T00:26:13.243Z,92.25
2022-11-24T00:28:41.415Z,92.35
2022-11-24T00:31:30.212Z,92.57
2022-11-24T00:34:00.971Z,92.55
2022-11-24T00:36:30.647Z,92.68
2022-11-24T00:39:07.078Z,92.37
2022-11-24T00:41:34.376Z,92.02
2022-11-24T00:44:01.380Z,91.44
2022-11-24T00:46:29.002Z,92.48
2022-11-24T00:48:55.931Z,91.48
2022-11-24T00:51:30.154Z,91.53
2022-11-24T00:54:01.183Z,91.70
2022-11-24T00:56:29.657Z,91.12
2022-11-24T00:58:57.260Z,91.46
2022-11-24T01:01:27.320Z,91.43
2022-11-24T01:03:55.264Z,91.76
2022-11-24T01:06:25.009Z,91.32
2022-11-24T01:08:52.583Z,91.48
2022-11-24T01:11:20.845Z,90.96
2022-11-24T01:13:53.099Z,90.42
2022-11-24T01:16:23.385Z,90.67
2022-11-24T01:18:50.671Z,90.79
2022-11-24T01:21:18.479Z,90.64
2022-11-24T01:23:45.148Z,90.73
2022-11-24T01:26:15.873Z,90.74
2022-11-24T01:28:46.965Z,89.89
2022-11-24T01:31:16.030Z,90.66
2022-11-24T01:33:42.992Z,90.08
2022-11-24T01:36:09.828Z,90.67
2022-11-24T01:38:36.581Z,90.00
2022-11-24T01:41:15.140Z,90.40
2022-11-24T01:43:43.942Z,89.82
2022-11-24T01:46:32.117Z,89.86
2022-11-24T01:49:10.079Z,90.23
2022-11-24T01:51:43.646Z,89.91
2022-11-24T01:54:25.575Z,89.99
2022-11-24T01:57:08.070Z,90.34
2022-11-24T01:59:35.116Z,89.81
2022-11-24T02:02:02.181Z,90.36
2022-11-24T02:04:33.352Z,89.50
2022-11-24T02:07:03.659Z,90.16
2022-11-24T02:09:41.742Z,90.73
2022-11-24T02:12:09.495Z,90.35
2022-11-24T02:14:38.406Z,90.26
2022-11-24T02:17:05.337Z,90.65
2022-11-24T02:19:41.297Z,89.75
2022-11-24T02:22:33.550Z,90.16
2022-11-24T02:25:07.545Z,89.80
2022-11-24T02:27:34.489Z,89.79
2022-11-24T02:30:01.412Z,89.73
2022-11-24T02:32:33.089Z,90.33
2022-11-24T02:35:07.422Z,90.28
2022-11-24T02:37:34.230Z,89.39
2022-11-24T02:40:01.111Z,89.76
2022-11-24T02:42:33.819Z,90.01
2022-11-24T02:45:01.696Z,90.03
2022-11-24T02:47:28.715Z,90.09
2022-11-24T02:49:55.535Z,89.83
2022-11-24T02:52:22.335Z,89.91
2022-11-24T02:54:48.965Z,89.91
2022-11-24T02:57:15.759Z,89.96
2022-11-24T02:59:42.602Z,89.19
2022-11-24T03:02:10.355Z,89.53
2022-11-24T03:04:37.152Z,90.49
2022-11-24T03:07:04.114Z,90.31
2022-11-24T03:09:31.438Z,89.97
2022-11-24T03:11:58.254Z,89.73
2022-11-24T03:14:24.928Z,89.66
2022-11-24T03:16:51.624Z,89.45
2022-11-24T03:19:18.444Z,89.31
2022-11-24T03:21:45.241Z,89.17
2022-11-24T03:24:12.060Z,88.69
2022-11-24T03:26:38.681Z,88.98
2022-11-24T03:29:05.507Z,88.04
2022-11-24T03:31:32.405Z,88.17
2022-11-24T03:33:59.308Z,88.73
2022-11-24T03:36:26.442Z,88.02
2022-11-24T03:38:53.138Z,87.99
2022-11-24T03:41:19.824Z,87.74
2022-11-24T03:43:46.451Z,87.49
2022-11-24T03:46:13.382Z,87.07
2022-11-24T03:48:40.420Z,87.53
2022-11-24T03:51:07.353Z,88.00
2022-11-24T03:53:34.245Z,87.16
2022-11-24T03:56:02.042Z,87.86
2022-11-24T03:58:29.778Z,87.25
2022-11-24T04:00:57.604Z,86.78
2022-11-24T04:03:24.704Z,87.09
2022-11-24T04:05:52.018Z,86.78
2022-11-24T04:08:19.502Z,87.32
2022-11-24T04:10:51.108Z,87.68
2022-11-24T04:13:21.106Z,88.21
2022-11-24T04:15:48.005Z,87.67
2022-11-24T04:18:14.947Z,87.67
2022-11-24T04:20:42.386Z,88.49
2022-11-24T04:23:10.519Z,89.16
2022-11-24T04:25:38.118Z,88.47
2022-11-24T04:28:04.775Z,88.33
2022-11-24T04:30:31.674Z,89.05
2022-11-24T04:32:58.797Z,88.90
2022-11-24T04:35:25.443Z,88.80
2022-11-24T04:37:52.347Z,89.47
2022-11-24T04:40:19.889Z,89.63
2022-11-24T04:42:56.768Z,89.69
2022-11-24T04:45:24.092Z,89.75
2022-11-24T04:47:51.265Z,90.41
2022-11-24T04:50:18.290Z,89.90
2022-11-24T04:52:45.156Z,89.87
2022-11-24T04:55:11.954Z,89.49
2022-11-24T04:57:38.825Z,89.36
2022-11-24T05:00:07.486Z,89.85
2022-11-24T05:02:34.184Z,89.72
2022-11-24T05:05:00.824Z,89.15
2022-11-24T05:07:27.765Z,89.18
2022-11-24T05:10:13.292Z,89.40
2022-11-24T05:12:39.971Z,89.88
2022-11-24T05:15:07.719Z,88.57
2022-11-24T05:17:37.912Z,88.85
2022-11-24T05:20:06.669Z,89.07
2022-11-24T05:22:33.762Z,88.67
2022-11-24T05:25:00.677Z,89.54
2022-11-24T05:27:27.519Z,89.12
2022-11-24T05:29:54.162Z,89.72
2022-11-24T05:32:20.803Z,89.33
2022-11-24T05:34:47.901Z,88.88
2022-11-24T05:37:14.750Z,88.60
2022-11-24T05:39:41.420Z,88.76
2022-11-24T05:42:27.570Z,88.81
2022-11-24T05:44:54.326Z,88.00
2022-11-24T05:47:21.440Z,87.72
2022-11-24T05:49:48.316Z,88.26
2022-11-24T05:52:16.584Z,87.92
2022-11-24T05:54:43.444Z,87.76
2022-11-24T05:57:10.101Z,88.29
2022-11-24T05:59:37.191Z,87.79
2022-11-24T06:02:04.277Z,87.83
2022-11-24T06:04:31.616Z,87.54
2022-11-24T06:06:58.610Z,88.11
2022-11-24T06:09:25.445Z,88.05
2022-11-24T06:11:52.132Z,87.63
2022-11-24T06:14:18.942Z,88.17
2022-11-24T06:16:45.657Z,87.09
2022-11-24T06:19:13.101Z,87.98
2022-11-24T06:21:39.929Z,86.98
2022-11-24T06:24:07.158Z,88.11
2022-11-24T06:26:33.887Z,87.76
2022-11-24T06:29:01.229Z,87.48
2022-11-24T06:31:28.162Z,87.56
2022-11-24T06:33:55.011Z,87.66
2022-11-24T06:36:21.880Z,86.64
2022-11-24T06:38:48.636Z,86.75
2022-11-24T06:41:16.359Z,86.65
2022-11-24T06:43:46.296Z,86.33
2022-11-24T06:46:13.625Z,86.11
2022-11-24T06:48:40.339Z,85.77
2022-11-24T06:51:10.578Z,86.30
2022-11-24T06:53:39.623Z,85.10
2022-11-24T06:56:15.235Z,85.63
2022-11-24T06:58:48.614Z,85.25
2022-11-24T07:01:24.097Z,85.38
2022-11-24T07:03:52.742Z,85.46
2022-11-24T07:06:20.758Z,85.65
2022-11-24T07:08:48.849Z,85.79
2022-11-24T07:11:19.037Z,85.36
2022-11-24T07:13:47.096Z,85.23
2022-11-24T07:16:15.633Z,85.36
2022-11-24T07:18:44.410Z,84.85
2022-11-24T07:21:11.765Z,84.44
2022-11-24T07:23:38.643Z,84.02
2022-11-24T07:26:07.330Z,83.39
2022-11-24T07:28:36.598Z,84.65
2022-11-24T07:31:12.537Z,84.22
2022-11-24T07:33:39.576Z,83.22
2022-11-24T07:36:08.243Z,83.54
2022-11-24T07:38:36.162Z,83.10
2022-11-24T07:41:05.629Z,84.28
2022-11-24T07:43:37.068Z,83.87
2022-11-24T07:46:05.653Z,83.41
2022-11-24T07:48:33.312Z,83.74
2022-11-24T07:54:10.072Z,83.46
2022-11-24T07:56:36.792Z,83.06
2022-11-24T07:59:15.498Z,82.83
2022-11-24T08:01:42.314Z,83.97
2022-11-24T08:04:09.127Z,82.99
2022-11-24T08:06:40.938Z,83.18
2022-11-24T08:09:11.395Z,83.63
2022-11-24T08:11:38.029Z,83.58
2022-11-24T08:14:05.027Z,82.02
2022-11-24T08:16:34.246Z,82.57
2022-11-24T08:19:01.208Z,81.79
2022-11-24T08:21:28.159Z,80.89
2022-11-24T08:23:56.695Z,81.38
2022-11-24T08:26:24.999Z,81.80
2022-11-24T08:28:59.500Z,81.90
2022-11-24T08:31:33.343Z,81.44
2022-11-24T08:34:02.834Z,82.14
2022-11-24T08:36:33.891Z,81.68
2022-11-24T08:39:01.894Z,82.09
2022-11-24T08:41:33.731Z,82.10
2022-11-24T08:44:04.052Z,82.91
2022-11-24T08:46:30.925Z,82.13
2022-11-24T08:48:57.754Z,81.96
2022-11-24T08:51:26.773Z,82.00
2022-11-24T08:53:58.712Z,82.27
2022-11-24T08:56:27.535Z,82.22
2022-11-24T08:58:55.868Z,81.50
2022-11-24T09:01:23.517Z,81.17
2022-11-24T09:03:51.565Z,81.33
2022-11-24T09:06:25.203Z,81.50
2022-11-24T09:08:54.626Z,81.08
2022-11-24T09:11:22.209Z,80.56
2022-11-24T09:13:49.480Z,80.66
2022-11-24T09:16:18.983Z,80.82
2022-11-24T09:18:47.235Z,80.99
2022-11-24T09:21:17.479Z,81.92
2022-11-24T09:23:50.239Z,81.26
2022-11-24T09:26:21.625Z,80.35
2022-11-24T09:28:48.937Z,80.23
2022-11-24T09:31:17.993Z,80.04
2022-11-24T09:33:45.196Z,80.17
2022-11-24T09:36:12.490Z,79.04
2022-11-24T09:38:39.689Z,79.13
2022-11-24T09:41:18.972Z,79.32
2022-11-24T09:44:00.638Z,79.13
2022-11-24T09:46:43.620Z,79.45
2022-11-24T09:49:27.590Z,79.21
2022-11-24T09:51:56.990Z,78.97
2022-11-24T09:54:28.666Z,79.53
2022-11-24T09:57:01.091Z,79.24
2022-11-24T09:59:28.522Z,79.89
2022-11-24T10:01:56.532Z,79.23
2022-11-24T10:04:33.102Z,79.16
2022-11-24T10:07:15.116Z,79.44
2022-11-24T10:10:10.155Z,79.96
2022-11-24T10:12:44.883Z,79.12
2022-11-24T10:15:25.561Z,79.52
2022-11-24T10:18:04.764Z,79.05
2022-11-24T10:20:57.288Z,79.87
2022-11-24T10:23:41.809Z,79.25
2022-11-24T10:26:18.885Z,79.74
2022-11-24T10:28:55.629Z,79.31
2022-11-24T10:31:35.951Z,78.75
2022-11-24T10:34:37.507Z,78.83
2022-11-24T10:37:13.496Z,78.70
2022-11-24T10:39:57.099Z,77.71
2022-11-24T10:42:33.462Z,78.45
2022-11-24T10:45:17.082Z,78.53
2022-11-24T10:47:46.124Z,77.93
2022-11-24T10:50:25.328Z,78.51
2022-11-24T10:55:58.647Z,78.02
2022-11-24T10:58:39.081Z,78.31
2022-11-24T11:01:15.156Z,77.86
2022-11-24T11:03:52.034Z,78.11
2022-11-24T11:06:25.351Z,78.09
2022-11-24T11:09:07.288Z,78.14
2022-11-24T11:14:07.904Z,78.44
2022-11-24T11:16:38.578Z,77.90
2022-11-24T11:19:50.827Z,77.72
2022-11-24T11:22:28.553Z,77.86
2022-11-24T11:25:18.795Z,77.68
2022-11-24T11:27:46.002Z,78.28
2022-11-24T11:36:15.494Z,78.09
2022-11-24T11:38:45.410Z,77.40
2022-11-24T11:41:21.939Z,77.00
2022-11-24T11:44:00.040Z,77.29
2022-11-24T11:46:32.540Z,77.10
2022-11-24T11:49:00.266Z,76.94
2022-11-24T11:51:48.859Z,76.73
2022-11-24T11:54:51.445Z,77.04
2022-11-24T11:57:55.035Z,77.11
2022-11-24T12:00:22.777Z,76.65
2022-11-24T12:03:16.458Z,77.14
2022-11-24T12:06:21.965Z,76.84
2022-11-24T12:09:20.412Z,75.77
2022-11-24T12:12:25.144Z,76.87
2022-11-24T12:15:23.776Z,76.20
2022-11-24T12:18:55.990Z,76.31
2022-11-24T12:21:45.023Z,76.13
2022-11-24T12:24:36.763Z,76.13
2022-11-24T12:28:06.352Z,75.42
2022-11-24T12:31:03.259Z,76.45
2022-11-24T12:34:04.785Z,76.50
2022-11-24T12:36:43.941Z,76.03
2022-11-24T12:39:29.140Z,76.24
2022-11-24T12:42:14.275Z,76.12
2022-11-24T12:45:14.455Z,76.02
2022-11-24T12:48:05.278Z,76.14
2022-11-24T12:50:38.927Z,75.96
2022-11-24T12:53:19.036Z,75.86
2022-11-24T12:55:47.769Z,75.43
2022-11-24T12:58:34.477Z,75.03
2022-11-24T13:01:16.433Z,75.04
2022-11-24T13:04:01.446Z,75.55
2022-11-24T13:06:53.271Z,76.11
2022-11-24T13:09:20.219Z,75.39
2022-11-24T13:11:57.896Z,75.91
2022-11-24T13:14:33.306Z,75.72
2022-11-24T13:19:50.049Z,75.64
2022-11-24T13:22:25.093Z,74.91
2022-11-24T13:25:17.287Z,75.64
2022-11-24T13:27:48.403Z,74.68
2022-11-24T13:30:53.470Z,75.55
2022-11-24T13:33:32.333Z,75.54
2022-11-24T13:36:01.699Z,75.88
2022-11-24T13:38:51.972Z,76.80
2022-11-24T13:41:33.659Z,75.21
2022-11-24T13:44:15.719Z,76.68
2022-11-24T13:47:25.064Z,76.39
2022-11-24T13:49:51.722Z,76.31
2022-11-24T13:52:37.207Z,75.98
2022-11-24T13:55:19.471Z,76.13
2022-11-24T13:57:57.471Z,76.20
2022-11-24T14:00:33.986Z,77.24
2022-11-24T14:03:19.568Z,77.24
2022-11-24T14:05:50.745Z,76.77
2022-11-24T14:08:26.598Z,77.16
2022-11-24T14:10:56.545Z,77.93
2022-11-24T14:13:23.301Z,77.14
2022-11-24T14:16:04.415Z,78.01
2022-11-24T14:18:33.971Z,77.44
2022-11-24T14:21:16.627Z,77.29
2022-11-24T14:23:52.088Z,77.68
2022-11-24T14:26:26.554Z,78.37
2022-11-24T14:28:54.741Z,78.03
2022-11-24T14:31:25.079Z,79.41
2022-11-24T14:34:11.814Z,79.41
2022-11-24T14:36:39.781Z,79.78
2022-11-24T14:39:11.075Z,79.76
2022-11-24T14:41:38.059Z,79.94
2022-11-24T14:44:25.167Z,80.90
2022-11-24T14:47:03.997Z,80.53
2022-11-24T14:49:33.134Z,81.09
2022-11-24T14:52:12.796Z,80.56
2022-11-24T14:55:07.552Z,81.92
2022-11-24T14:57:44.399Z,81.55
2022-11-24T15:00:20.805Z,82.57
2022-11-24T15:02:56.210Z,82.49
2022-11-24T15:05:25.345Z,84.16
2022-11-24T15:08:02.781Z,84.02
2022-11-24T15:10:34.692Z,84.12
2022-11-24T15:13:05.599Z,83.36
2022-11-24T15:15:36.466Z,84.58
2022-11-24T15:18:06.285Z,84.43
2022-11-24T15:20:41.464Z,84.79
2022-11-24T15:23:22.803Z,84.22
2022-11-24T15:25:54.639Z,84.55
2022-11-24T15:28:25.681Z,84.83
2022-11-24T15:30:54.776Z,84.82
2022-11-24T15:33:23.106Z,85.64
2022-11-24T15:35:49.799Z,85.10
2022-11-24T15:38:17.428Z,86.38
2022-11-24T15:40:47.586Z,86.74
2022-11-24T15:43:37.201Z,86.23
2022-11-24T15:46:05.632Z,86.88
2022-11-24T15:48:32.889Z,87.00
2022-11-24T15:51:02.799Z,86.62
2022-11-24T15:53:32.839Z,86.80
2022-11-24T15:56:03.265Z,87.06
2022-11-24T15:58:30.076Z,86.79
2022-11-24T16:00:56.978Z,87.00
2022-11-24T16:03:46.306Z,87.07
2022-11-24T16:06:23.378Z,87.38
2022-11-24T16:08:51.403Z,86.93
2022-11-24T16:11:18.140Z,87.48
2022-11-24T16:13:51.538Z,87.72
2022-11-24T16:16:19.796Z,87.18
2022-11-24T16:18:46.723Z,87.92
2022-11-24T16:21:13.369Z,88.01
2022-11-24T16:23:40.171Z,87.99
2022-11-24T16:26:07.555Z,88.04
2022-11-24T16:28:34.670Z,87.80
2022-11-24T16:31:01.573Z,88.03
2022-11-24T16:33:31.606Z,87.48
2022-11-24T16:35:58.581Z,87.31
2022-11-24T16:38:25.451Z,87.25
2022-11-24T16:40:54.267Z,86.94
2022-11-24T16:43:20.948Z,87.50
2022-11-24T16:46:03.015Z,87.41
2022-11-24T16:48:33.803Z,87.32
2022-11-24T16:51:06.360Z,87.45
2022-11-24T16:53:33.005Z,87.78
2022-11-24T16:55:59.658Z,88.08
2022-11-24T16:58:26.341Z,88.06
2022-11-24T17:00:53.048Z,87.75
2022-11-24T17:03:19.855Z,87.20
2022-11-24T17:06:07.367Z,87.16
2022-11-24T17:08:35.974Z,86.97
2022-11-24T17:11:13.973Z,87.67
2022-11-24T17:13:41.847Z,86.73
2022-11-24T17:16:11.499Z,86.79
2022-11-24T17:18:39.783Z,87.47
2022-11-24T17:21:10.837Z,87.24
2022-11-24T17:23:37.586Z,87.51
2022-11-24T17:26:07.687Z,87.70
2022-11-24T17:28:36.276Z,87.89
2022-11-24T17:31:23.248Z,88.44
2022-11-24T17:33:52.913Z,88.65
2022-11-24T17:36:20.159Z,88.25
2022-11-24T17:38:49.259Z,87.69
2022-11-24T17:41:16.907Z,87.04
2022-11-24T17:43:43.752Z,87.89
2022-11-24T17:46:10.998Z,87.92
2022-11-24T17:48:40.650Z,87.39
2022-11-24T17:51:12.804Z,86.97
2022-11-24T17:53:42.282Z,87.99
2022-11-24T17:56:13.515Z,86.76
2022-11-24T17:58:44.387Z,87.16
2022-11-24T18:01:12.913Z,87.80
2022-11-24T18:03:41.208Z,87.63
2022-11-24T18:06:10.784Z,88.18
2022-11-24T18:08:39.406Z,87.92
2022-11-24T18:11:15.353Z,88.48
2022-11-24T18:13:58.323Z,88.40
2022-11-24T18:16:30.040Z,87.91
2022-11-24T18:19:14.617Z,87.76
2022-11-24T18:21:44.574Z,87.25
2022-11-24T18:24:12.860Z,87.41
2022-11-24T18:26:41.501Z,87.30
2022-11-24T18:29:09.295Z,86.88
2022-11-24T18:31:37.013Z,86.67
2022-11-24T18:34:05.943Z,86.60
2022-11-24T18:36:33.037Z,86.36
2022-11-24T18:39:01.566Z,86.72
2022-11-24T18:41:28.261Z,86.91
2022-11-24T18:43:55.140Z,86.62
2022-11-24T18:46:22.170Z,86.52
2022-11-24T18:48:51.288Z,86.25
2022-11-24T18:51:18.525Z,86.16
2022-11-24T18:53:46.859Z,86.10
2022-11-24T18:56:16.381Z,86.06
2022-11-24T18:58:44.305Z,86.18
2022-11-24T19:01:17.333Z,86.40
2022-11-24T19:03:49.022Z,85.71
2022-11-24T19:06:20.449Z,85.95
2022-11-24T19:08:48.560Z,85.44
2022-11-24T19:11:35.442Z,85.73
2022-11-24T19:14:04.979Z,86.49
2022-11-24T19:16:32.832Z,85.97
2022-11-24T19:19:02.376Z,85.88
2022-11-24T19:21:38.595Z,86.28
2022-11-24T19:24:07.944Z,85.98
2022-11-24T19:26:35.365Z,86.48
2022-11-24T19:29:03.022Z,86.28
2022-11-24T19:31:30.240Z,86.79
2022-11-24T19:33:58.576Z,86.43
2022-11-24T19:36:26.442Z,87.07
2022-11-24T19:38:55.660Z,86.76
2022-11-24T19:41:25.036Z,86.99
2022-11-24T19:43:55.080Z,87.48
2022-11-24T19:46:23.301Z,87.61
2022-11-24T19:48:53.980Z,87.51
2022-11-24T19:51:32.680Z,88.20
2022-11-24T19:54:00.594Z,87.74
2022-11-24T19:56:30.149Z,87.45
2022-11-24T19:58:57.861Z,88.06
2022-11-24T20:01:30.608Z,88.12
2022-11-24T20:04:01.076Z,87.67
2022-11-24T20:06:32.744Z,86.89
2022-11-24T20:09:01.053Z,86.97
2022-11-24T20:11:28.900Z,86.78
2022-11-24T20:13:57.807Z,86.51
2022-11-24T20:16:28.267Z,86.67
2022-11-24T20:19:00.824Z,86.38
2022-11-24T20:21:32.459Z,86.64
2022-11-24T20:24:06.493Z,86.46
2022-11-24T20:26:37.016Z,86.71
2022-11-24T20:29:05.120Z,86.72
2022-11-24T20:31:35.613Z,86.15
2022-11-24T20:34:04.312Z,86.45
2022-11-24T20:36:33.687Z,86.60
2022-11-24T20:39:03.489Z,86.70
2022-11-24T20:41:34.776Z,86.74
2022-11-24T20:44:06.996Z,86.98
2022-11-24T20:46:36.046Z,86.54
2022-11-24T20:49:03.966Z,86.33
2022-11-24T20:51:34.089Z,86.70
2022-11-24T20:54:04.137Z,86.68
2022-11-24T20:56:34.220Z,86.36
2022-11-24T20:59:03.431Z,87.20
2022-11-24T21:01:38.660Z,87.38
2022-11-24T21:04:09.188Z,87.85
2022-11-24T21:06:36.756Z,88.21
2022-11-24T21:09:05.487Z,88.05
2022-11-24T21:11:32.783Z,87.56
2022-11-24T21:14:00.510Z,87.06
2022-11-24T21:16:30.503Z,86.61
2022-11-24T21:19:03.624Z,86.87
2022-11-24T21:21:34.411Z,86.55
2022-11-24T21:24:02.566Z,86.13
2022-11-24T21:26:29.631Z,85.75
2022-11-24T21:28:57.366Z,85.58
2022-11-24T21:31:24.383Z,84.58
2022-11-24T21:33:53.216Z,84.54
2022-11-24T21:36:23.402Z,84.43
2022-11-24T21:38:59.454Z,84.46
2022-11-24T21:41:28.890Z,84.34
2022-11-24T21:43:56.447Z,84.37
2022-11-24T21:46:27.904Z,84.33
2022-11-24T21:48:57.843Z,84.16
2022-11-24T21:51:24.682Z,83.42
2022-11-24T21:53:51.623Z,83.63
2022-11-24T21:56:21.098Z,83.41
2022-11-24T21:58:57.178Z,83.40
2022-11-24T22:01:30.005Z,84.18
2022-11-24T22:04:00.423Z,84.21
2022-11-24T22:06:27.520Z,84.65
2022-11-24T22:08:55.041Z,83.61
2022-11-24T22:11:24.826Z,84.18
2022-11-24T22:13:52.301Z,84.35
2022-11-24T22:16:21.885Z,83.63
2022-11-24T22:18:49.112Z,83.60
2022-11-24T22:21:33.253Z,83.99
2022-11-24T22:24:00.701Z,83.85
2022-11-24T22:26:29.257Z,83.46
2022-11-24T22:28:57.584Z,83.88
2022-11-24T22:31:27.376Z,84.14
2022-11-24T22:33:56.126Z,83.48
2022-11-24T22:36:26.663Z,83.79
2022-11-24T22:39:03.348Z,83.05
2022-11-24T22:41:40.443Z,83.88
2022-11-24T22:44:07.491Z,83.87
2022-11-24T22:46:37.128Z,84.15
2022-11-24T22:49:04.334Z,83.93
2022-11-24T22:51:37.307Z,84.29
2022-11-24T22:54:15.712Z,84.60
2022-11-24T22:56:42.652Z,83.75
2022-11-24T22:59:09.378Z,84.31
2022-11-24T23:01:36.444Z,84.46
2022-11-24T23:04:03.821Z,84.26
2022-11-24T23:06:33.189Z,84.65
2022-11-24T23:09:02.330Z,84.74
2022-11-24T23:11:38.667Z,84.91
2022-11-24T23:14:08.475Z,84.48
2022-11-24T23:16:35.307Z,85.14
2022-11-24T23:19:02.769Z,84.43
2022-11-24T23:21:32.334Z,84.47
2022-11-24T23:24:01.360Z,84.84
2022-11-24T23:26:30.813Z,84.80
2022-11-24T23:28:58.072Z,84.53
2022-11-24T23:31:28.619Z,85.06
2022-11-24T23:33:58.289Z,85.02
2022-11-24T23:36:25.869Z,84.95
2022-11-24T23:38:53.037Z,84.76
2022-11-24T23:41:25.183Z,84.31
2022-11-24T23:43:52.605Z,84.51
2022-11-24T23:46:22.400Z,84.28
2022-11-24T23:48:51.441Z,84.62
2022-11-24T23:51:22.327Z,84.68
2022-11-24T23:53:50.086Z,84.31
2022-11-24T23:56:20.297Z,84.99
2022-11-24T23:58:47.528Z,84.36
